Time;durP1;ratioP1;P1;durP2;ratioP2;P2;SDS_P1;SDS_P2;PMS_P1;PMS_P2;Temp;Humidity;BMP_temperature;BMP_pressure;BME280_temperature;BME280_humidity;BME280_pressure;Samples;Min_cycle;Max_cycle;Signal;HPM_P1;HPM_P2
2023/03/03 00:00:13;;;;;;;14.07;7.97;;;0.10;99.90;;;;;;5112066;28;20496;-61
2023/03/03 00:02:39;;;;;;;11.10;6.88;;;0.10;99.90;;;;;;5110991;28;20039;-61
2023/03/03 00:05:05;;;;;;;12.10;7.13;;;0.10;99.90;;;;;;5109972;28;20480;-61
2023/03/03 00:07:31;;;;;;;10.63;6.90;;;0.10;99.90;;;;;;5110866;28;20431;-61
2023/03/03 00:09:56;;;;;;;9.65;6.35;;;0.00;99.90;;;;;;5111470;28;20036;-61
2023/03/03 00:12:25;;;;;;;12.05;7.72;;;0.00;99.90;;;;;;5109972;28;20040;-61
2023/03/03 00:14:51;;;;;;;10.65;7.30;;;0.00;99.90;;;;;;5097873;28;20031;-61
2023/03/03 00:17:24;;;;;;;13.05;8.10;;;0.00;99.90;;;;;;5113811;28;20494;-61
2023/03/03 00:19:50;;;;;;;11.45;7.55;;;-0.10;99.90;;;;;;5115443;28;20039;-61
2023/03/03 00:22:30;;;;;;;13.07;8.57;;;-0.10;99.90;;;;;;5114011;28;20127;-62
2023/03/03 00:25:33;;;;;;;11.13;7.75;;;-0.10;99.90;;;;;;5114891;28;20062;-61
2023/03/03 00:28:23;;;;;;;12.82;7.88;;;-0.10;99.90;;;;;;5036117;28;20120;-61
2023/03/03 00:30:50;;;;;;;12.02;7.30;;;-0.10;99.90;;;;;;5111895;28;20048;-61
2023/03/03 00:33:33;;;;;;;10.07;6.90;;;-0.10;99.90;;;;;;5113935;28;20065;-62
2023/03/03 00:36:48;;;;;;;10.63;7.03;;;-0.20;99.90;;;;;;5114117;28;20479;-62
2023/03/03 00:39:34;;;;;;;11.27;7.47;;;-0.20;99.90;;;;;;5095716;28;20093;-61
2023/03/03 00:42:03;;;;;;;11.05;7.20;;;-0.20;99.90;;;;;;5115119;28;20062;-61
2023/03/03 00:44:42;;;;;;;10.90;6.82;;;-0.20;99.90;;;;;;5113414;28;20050;-61
2023/03/03 00:47:24;;;;;;;11.85;7.05;;;-0.20;99.90;;;;;;5111898;28;20092;-61
2023/03/03 00:49:50;;;;;;;9.77;6.85;;;-0.30;99.90;;;;;;5093736;28;20052;-61
2023/03/03 00:52:18;;;;;;;8.80;6.35;;;-0.30;99.90;;;;;;5094434;28;20043;-62
2023/03/03 00:54:43;;;;;;;10.13;6.55;;;-0.30;99.90;;;;;;5092415;28;20036;-61
2023/03/03 00:57:11;;;;;;;10.50;6.97;;;-0.30;99.90;;;;;;5076449;28;20036;-62
2023/03/03 00:59:38;;;;;;;11.43;7.57;;;-0.40;99.90;;;;;;5092319;28;20114;-61
2023/03/03 01:02:04;;;;;;;9.88;6.80;;;-0.40;99.90;;;;;;5076558;28;20127;-61
2023/03/03 01:04:30;;;;;;;10.52;7.78;;;-0.40;99.90;;;;;;5089738;28;20053;-61
2023/03/03 01:06:55;;;;;;;11.65;7.47;;;-0.40;99.90;;;;;;5073516;28;20048;-62
2023/03/03 01:09:21;;;;;;;11.85;7.43;;;-0.40;99.90;;;;;;5055754;28;20047;-61
2023/03/03 01:11:48;;;;;;;10.45;7.22;;;-0.40;99.90;;;;;;5072656;28;20409;-61
2023/03/03 01:14:13;;;;;;;11.93;7.63;;;-0.40;99.90;;;;;;5071671;28;20496;-61
2023/03/03 01:16:40;;;;;;;10.77;7.32;;;-0.40;99.90;;;;;;5098989;28;20027;-61
2023/03/03 01:19:06;;;;;;;13.55;9.00;;;-0.40;99.90;;;;;;5112752;28;20090;-62
2023/03/03 01:21:32;;;;;;;10.80;7.75;;;-0.40;99.90;;;;;;5111981;28;20047;-61
2023/03/03 01:23:58;;;;;;;10.88;7.13;;;-0.40;99.90;;;;;;5112485;28;20043;-61
2023/03/03 01:26:23;;;;;;;12.45;7.85;;;-0.40;99.90;;;;;;5112647;28;20044;-61
2023/03/03 01:28:49;;;;;;;14.10;8.40;;;-0.40;99.90;;;;;;5112229;28;20047;-61
2023/03/03 01:31:15;;;;;;;14.80;8.98;;;-0.40;99.90;;;;;;5112848;28;20514;-61
2023/03/03 01:33:40;;;;;;;12.55;8.48;;;-0.50;99.90;;;;;;5114122;28;20392;-62
2023/03/03 01:36:06;;;;;;;12.48;7.57;;;-0.50;99.90;;;;;;5113255;28;20032;-61
2023/03/03 01:38:35;;;;;;;12.50;8.43;;;-0.50;99.90;;;;;;5102373;28;20039;-61
2023/03/03 01:41:01;;;;;;;14.25;9.57;;;-0.50;99.90;;;;;;5093503;28;20127;-61
2023/03/03 01:43:29;;;;;;;10.82;7.88;;;-0.50;99.90;;;;;;5092195;28;20488;-61
2023/03/03 01:45:56;;;;;;;12.82;7.80;;;-0.50;99.90;;;;;;5088988;28;20098;-61
2023/03/03 01:48:35;;;;;;;16.05;7.90;;;-0.50;99.90;;;;;;5071775;28;20537;-61
2023/03/03 01:51:02;;;;;;;14.15;7.55;;;-0.50;99.90;;;;;;5072555;28;20033;-61
2023/03/03 01:53:41;;;;;;;12.30;8.63;;;-0.50;99.90;;;;;;5072522;28;20032;-61
2023/03/03 01:56:08;;;;;;;11.27;7.93;;;-0.50;99.90;;;;;;5071007;28;20480;-61
2023/03/03 01:58:38;;;;;;;9.63;7.05;;;-0.60;99.90;;;;;;5073058;28;20028;-61
2023/03/03 02:01:08;;;;;;;12.70;7.63;;;-0.60;99.90;;;;;;5090681;28;20047;-62
2023/03/03 02:03:34;;;;;;;12.63;8.18;;;-0.60;99.90;;;;;;5111205;28;20118;-62
2023/03/03 02:06:06;;;;;;;10.52;7.60;;;-0.60;99.90;;;;;;5091405;28;20041;-62
2023/03/03 02:08:46;;;;;;;12.93;8.27;;;-0.60;99.90;;;;;;5072492;28;20440;-61
2023/03/03 02:11:13;;;;;;;11.75;8.30;;;-0.60;99.90;;;;;;5070836;28;20396;-61
2023/03/03 02:13:39;;;;;;;10.23;7.15;;;-0.60;99.90;;;;;;5071149;28;20047;-61
2023/03/03 02:16:05;;;;;;;11.82;7.47;;;-0.60;99.90;;;;;;5071411;28;20036;-61
2023/03/03 02:18:31;;;;;;;13.45;7.55;;;-0.60;99.90;;;;;;5070668;28;20503;-61
2023/03/03 02:21:05;;;;;;;9.88;6.45;;;-0.60;99.90;;;;;;5070158;28;20036;-61
2023/03/03 02:23:53;;;;;;;11.00;6.80;;;-0.60;99.90;;;;;;5072611;28;20048;-62
2023/03/03 02:26:24;;;;;;;10.73;7.10;;;-0.60;99.90;;;;;;5072349;28;20044;-62
2023/03/03 02:28:51;;;;;;;11.35;7.20;;;-0.60;99.90;;;;;;5071427;28;20089;-62
2023/03/03 02:31:19;;;;;;;11.02;6.72;;;-0.60;99.90;;;;;;5070129;28;20055;-62
2023/03/03 02:33:48;;;;;;;9.50;6.82;;;-0.60;99.90;;;;;;5086877;28;20039;-61
2023/03/03 02:36:16;;;;;;;10.68;6.53;;;-0.70;99.90;;;;;;5091640;28;20443;-61
2023/03/03 02:39:09;;;;;;;9.60;5.97;;;-0.70;99.90;;;;;;5091711;28;20039;-62
2023/03/03 02:41:39;;;;;;;10.98;6.65;;;-0.60;99.90;;;;;;5091662;28;20083;-62
2023/03/03 02:44:11;;;;;;;9.30;6.25;;;-0.70;99.90;;;;;;5088120;28;20063;-62
2023/03/03 02:46:42;;;;;;;10.45;5.90;;;-0.70;99.90;;;;;;5069885;28;20040;-62
2023/03/03 02:49:10;;;;;;;9.20;6.25;;;-0.70;99.90;;;;;;5070713;28;20515;-62
2023/03/03 02:51:36;;;;;;;9.88;5.85;;;-0.70;99.90;;;;;;5070745;28;20127;-63
2023/03/03 02:54:02;;;;;;;11.02;6.43;;;-0.70;99.90;;;;;;5071564;28;20146;-61
2023/03/03 02:56:28;;;;;;;9.85;6.30;;;-0.70;99.90;;;;;;5070545;28;20047;-62
2023/03/03 02:58:54;;;;;;;13.00;7.22;;;-0.70;99.90;;;;;;5060588;28;20123;-61
2023/03/03 03:01:20;;;;;;;10.70;6.97;;;-0.70;99.90;;;;;;5070013;28;20041;-65
2023/03/03 03:03:46;;;;;;;11.73;6.40;;;-0.70;99.90;;;;;;5068498;28;20047;-65
2023/03/03 03:06:11;;;;;;;10.85;6.93;;;-0.80;99.90;;;;;;5091199;28;20040;-65
2023/03/03 03:08:37;;;;;;;10.23;6.28;;;-0.80;99.90;;;;;;5090783;28;20054;-65
2023/03/03 03:11:04;;;;;;;9.95;5.63;;;-0.80;99.90;;;;;;5091149;28;20396;-65
2023/03/03 03:13:31;;;;;;;10.60;6.35;;;-0.80;99.90;;;;;;5091172;28;20036;-65
2023/03/03 03:15:57;;;;;;;10.73;7.10;;;-0.80;99.90;;;;;;5091082;28;20152;-65
2023/03/03 03:18:22;;;;;;;8.65;5.53;;;-0.80;99.90;;;;;;5084567;28;20472;-65
2023/03/03 03:20:48;;;;;;;9.85;5.68;;;-0.80;99.90;;;;;;5069872;28;20538;-65
2023/03/03 03:23:14;;;;;;;11.43;5.97;;;-0.80;99.90;;;;;;5070422;28;20069;-65
2023/03/03 03:25:44;;;;;;;12.00;6.50;;;-0.80;99.90;;;;;;5070496;28;20119;-65
2023/03/03 03:28:15;;;;;;;9.68;5.13;;;-0.80;99.90;;;;;;5069919;28;20111;-65
2023/03/03 03:30:43;;;;;;;9.57;5.75;;;-0.80;99.90;;;;;;5078236;28;20051;-65
2023/03/03 03:33:09;;;;;;;8.88;5.30;;;-0.80;99.90;;;;;;5070315;28;20040;-65
2023/03/03 03:35:35;;;;;;;8.95;5.80;;;-0.90;99.90;;;;;;5070904;28;20029;-65
2023/03/03 03:38:01;;;;;;;9.65;5.55;;;-0.90;99.90;;;;;;5070662;28;20072;-65
2023/03/03 03:40:27;;;;;;;9.32;5.43;;;-0.80;99.90;;;;;;5053005;28;20063;-65
2023/03/03 03:42:53;;;;;;;10.43;5.57;;;-0.80;99.90;;;;;;5069726;28;20049;-65
2023/03/03 03:45:19;;;;;;;8.45;4.53;;;-0.80;99.90;;;;;;5069868;28;20045;-65
2023/03/03 03:47:45;;;;;;;9.10;5.13;;;-0.80;99.90;;;;;;5054106;28;20036;-65
2023/03/03 03:50:11;;;;;;;9.98;4.55;;;-0.80;99.90;;;;;;5073464;28;20404;-65
2023/03/03 03:52:37;;;;;;;8.30;5.43;;;-0.90;99.90;;;;;;5091566;28;20093;-66
2023/03/03 03:55:04;;;;;;;9.27;4.75;;;-0.80;99.90;;;;;;5094561;28;20451;-65
2023/03/03 03:57:30;;;;;;;10.68;4.47;;;-0.90;99.90;;;;;;5092114;28;20040;-65
2023/03/03 03:59:55;;;;;;;9.00;4.80;;;-0.90;99.90;;;;;;5074362;28;20041;-66
2023/03/03 04:02:21;;;;;;;7.80;4.50;;;-0.90;99.90;;;;;;5074749;28;20477;-65
2023/03/03 04:04:47;;;;;;;12.93;5.18;;;-0.90;99.90;;;;;;5090400;28;20123;-65
2023/03/03 04:07:12;;;;;;;8.23;4.85;;;-0.90;99.90;;;;;;5090848;28;20132;-65
2023/03/03 04:09:38;;;;;;;8.43;4.10;;;-0.90;99.90;;;;;;5072812;28;20488;-65
2023/03/03 04:12:04;;;;;;;8.65;4.80;;;-0.90;99.90;;;;;;5075426;28;20040;-65
2023/03/03 04:14:29;;;;;;;10.40;4.63;;;-0.90;99.90;;;;;;5131307;27;20031;-65
2023/03/03 04:16:55;;;;;;;10.07;4.72;;;-0.90;99.90;;;;;;5113882;28;20043;-66
2023/03/03 04:19:21;;;;;;;8.90;4.53;;;-0.90;99.90;;;;;;5114358;28;20448;-65
2023/03/03 04:21:47;;;;;;;8.68;5.32;;;-0.90;99.90;;;;;;5114177;28;20118;-66
2023/03/03 04:24:13;;;;;;;7.70;4.10;;;-0.90;99.90;;;;;;5113154;28;20185;-66
2023/03/03 04:26:39;;;;;;;9.43;4.60;;;-0.90;99.90;;;;;;5113770;28;20035;-65
2023/03/03 04:29:05;;;;;;;9.05;4.10;;;-0.90;99.90;;;;;;5114191;28;20149;-66
2023/03/03 04:31:30;;;;;;;6.45;3.45;;;-0.90;99.90;;;;;;5113126;28;20032;-66
2023/03/03 04:33:56;;;;;;;11.25;4.35;;;-0.90;99.90;;;;;;5115551;28;20036;-66
2023/03/03 04:36:22;;;;;;;9.43;3.90;;;-0.90;99.90;;;;;;5096890;28;20035;-66
2023/03/03 04:38:48;;;;;;;6.50;3.80;;;-0.90;99.90;;;;;;5112867;28;20090;-66
2023/03/03 04:41:14;;;;;;;8.90;3.70;;;-0.90;99.90;;;;;;5113366;28;20081;-65
2023/03/03 04:43:40;;;;;;;8.52;3.90;;;-0.90;99.90;;;;;;5113811;28;20453;-65
2023/03/03 04:46:06;;;;;;;6.57;3.17;;;-0.90;99.90;;;;;;5114098;28;20047;-65
2023/03/03 04:48:31;;;;;;;6.65;3.25;;;-0.90;99.90;;;;;;5096980;28;20455;-65
2023/03/03 04:50:57;;;;;;;7.95;3.13;;;-0.90;99.90;;;;;;5113387;28;20503;-65
2023/03/03 04:53:22;;;;;;;8.68;3.40;;;-1.00;99.90;;;;;;5095671;28;20472;-65
2023/03/03 04:55:52;;;;;;;8.48;3.30;;;-0.90;99.90;;;;;;5096630;28;20063;-65
2023/03/03 04:58:18;;;;;;;5.90;2.85;;;-0.90;99.90;;;;;;5113704;28;20079;-65
2023/03/03 05:00:46;;;;;;;6.50;3.13;;;-0.90;99.90;;;;;;5111503;28;20047;-65
2023/03/03 05:03:12;;;;;;;7.95;4.10;;;-0.90;99.90;;;;;;5113187;28;20035;-65
2023/03/03 05:05:39;;;;;;;8.13;3.92;;;-0.90;99.90;;;;;;5096034;28;20043;-65
2023/03/03 05:08:05;;;;;;;8.45;3.95;;;-1.00;99.90;;;;;;5113246;28;20401;-65
2023/03/03 05:10:31;;;;;;;8.23;3.63;;;-1.00;99.90;;;;;;5096150;28;20035;-65
2023/03/03 05:12:56;;;;;;;5.55;3.65;;;-1.00;99.90;;;;;;5112643;28;20432;-66
2023/03/03 05:15:22;;;;;;;7.18;3.92;;;-1.00;99.90;;;;;;5096123;28;20047;-65
2023/03/03 05:17:48;;;;;;;6.72;3.38;;;-1.00;99.90;;;;;;5112750;28;20095;-65
2023/03/03 05:20:13;;;;;;;8.00;4.10;;;-1.00;99.90;;;;;;5113464;28;20032;-66
2023/03/03 05:22:39;;;;;;;7.13;3.80;;;-1.00;99.90;;;;;;5112954;28;20088;-66
2023/03/03 05:25:05;;;;;;;9.65;4.78;;;-1.00;99.90;;;;;;5112703;28;20089;-66
2023/03/03 05:27:31;;;;;;;9.35;4.10;;;-1.00;99.90;;;;;;5113115;28;20442;-66
2023/03/03 05:29:56;;;;;;;8.32;4.35;;;-1.00;99.90;;;;;;5114394;28;20044;-65
2023/03/03 05:32:22;;;;;;;9.18;4.55;;;-1.00;99.90;;;;;;5112777;28;20044;-65
2023/03/03 05:34:47;;;;;;;8.30;4.05;;;-1.00;99.90;;;;;;5113185;28;20491;-66
2023/03/03 05:37:14;;;;;;;7.32;3.70;;;-1.00;99.90;;;;;;5114196;28;20111;-65
2023/03/03 05:39:40;;;;;;;8.35;3.80;;;-1.00;99.90;;;;;;5112143;28;20119;-65
2023/03/03 05:42:05;;;;;;;6.40;3.55;;;-1.00;99.90;;;;;;5111510;28;20130;-66
2023/03/03 05:44:31;;;;;;;5.20;2.70;;;-1.00;99.90;;;;;;5113822;28;20043;-67
2023/03/03 05:46:57;;;;;;;5.68;2.47;;;-1.00;99.90;;;;;;5112774;28;20036;-66
2023/03/03 05:49:24;;;;;;;7.30;2.40;;;-1.00;99.90;;;;;;5111724;28;20518;-66
2023/03/03 05:51:50;;;;;;;5.15;2.38;;;-1.00;99.90;;;;;;5114015;28;20046;-66
2023/03/03 05:54:16;;;;;;;8.43;4.65;;;-1.00;99.90;;;;;;5112016;28;20039;-66
2023/03/03 05:56:41;;;;;;;6.82;2.30;;;-1.00;99.90;;;;;;5094540;28;20036;-65
2023/03/03 05:59:07;;;;;;;4.72;1.98;;;-1.00;99.90;;;;;;5112278;28;20489;-66
2023/03/03 06:01:33;;;;;;;8.60;2.42;;;-1.00;99.90;;;;;;5113380;28;20446;-66
2023/03/03 06:03:58;;;;;;;7.50;2.25;;;-1.00;99.90;;;;;;5113322;28;20039;-66
2023/03/03 06:06:24;;;;;;;4.95;2.10;;;-1.10;99.90;;;;;;5112195;28;20039;-66
2023/03/03 06:08:49;;;;;;;4.35;1.65;;;-1.10;99.90;;;;;;5111770;28;20126;-66
2023/03/03 06:11:17;;;;;;;5.93;1.83;;;-1.00;99.90;;;;;;5110887;28;20092;-66
2023/03/03 06:13:43;;;;;;;5.40;2.17;;;-1.10;99.90;;;;;;5113261;28;20047;-65
2023/03/03 06:16:08;;;;;;;4.38;1.58;;;-1.10;99.90;;;;;;5094240;28;20035;-65
2023/03/03 06:18:34;;;;;;;4.97;1.58;;;-1.10;99.90;;;;;;5113186;28;20077;-66
2023/03/03 06:21:00;;;;;;;5.28;1.88;;;-1.10;99.90;;;;;;5112341;28;20130;-66
2023/03/03 06:23:26;;;;;;;5.10;1.60;;;-1.10;99.90;;;;;;5110283;28;20044;-66
2023/03/03 06:25:52;;;;;;;3.90;1.40;;;-1.10;99.90;;;;;;5113413;28;20031;-66
2023/03/03 06:28:18;;;;;;;4.35;1.50;;;-1.10;99.90;;;;;;5111643;28;20140;-66
2023/03/03 06:30:43;;;;;;;5.22;1.77;;;-1.10;99.90;;;;;;5112142;28;20040;-66
2023/03/03 06:33:09;;;;;;;4.60;1.55;;;-1.10;99.90;;;;;;5111702;28;20032;-66
2023/03/03 06:35:35;;;;;;;5.00;1.60;;;-1.10;99.90;;;;;;5111637;28;20039;-66
2023/03/03 06:38:01;;;;;;;4.38;1.48;;;-1.10;99.90;;;;;;5093867;28;20071;-66
2023/03/03 06:40:27;;;;;;;6.22;1.70;;;-1.10;99.90;;;;;;5110648;28;20503;-66
2023/03/03 06:42:52;;;;;;;8.98;3.08;;;-1.10;99.90;;;;;;5113258;28;20039;-66
2023/03/03 06:45:18;;;;;;;4.20;1.70;;;-1.10;99.90;;;;;;5110945;28;20127;-66
2023/03/03 06:47:44;;;;;;;5.50;1.75;;;-1.00;99.90;;;;;;5111426;28;20374;-66
2023/03/03 06:50:11;;;;;;;7.20;2.42;;;-1.00;99.90;;;;;;5109601;28;20118;-67
2023/03/03 06:52:36;;;;;;;5.07;1.58;;;-1.00;99.90;;;;;;5111992;28;20050;-66
2023/03/03 06:55:16;;;;;;;5.13;1.80;;;-1.00;99.90;;;;;;5094755;28;20043;-66
2023/03/03 06:57:41;;;;;;;6.82;1.83;;;-1.00;99.90;;;;;;5111323;28;20042;-66
2023/03/03 07:00:14;;;;;;;4.78;1.67;;;-1.00;99.90;;;;;;5109281;28;20121;-66
2023/03/03 07:02:40;;;;;;;5.13;1.77;;;-1.00;99.90;;;;;;5112666;28;20131;-66
2023/03/03 07:05:12;;;;;;;6.28;2.17;;;-0.90;99.90;;;;;;5111447;28;20134;-66
2023/03/03 07:07:38;;;;;;;3.88;1.63;;;-0.90;99.90;;;;;;5111109;28;20480;-66
2023/03/03 07:10:25;;;;;;;6.72;2.33;;;-0.90;99.90;;;;;;5112694;28;20057;-66
2023/03/03 07:12:52;;;;;;;7.22;3.63;;;-0.80;99.90;;;;;;5110316;28;20043;-66
2023/03/03 07:15:33;;;;;;;5.30;2.30;;;-0.80;99.90;;;;;;5110904;28;20042;-66
2023/03/03 07:17:59;;;;;;;4.57;2.28;;;-0.70;99.90;;;;;;5112829;28;20153;-66
2023/03/03 07:20:40;;;;;;;7.22;3.15;;;-0.70;99.90;;;;;;5092614;28;20096;-66
2023/03/03 07:23:24;;;;;;;10.65;5.10;;;-0.60;99.90;;;;;;5095454;28;20547;-65
2023/03/03 07:25:50;;;;;;;11.40;6.90;;;-0.50;99.90;;;;;;5115727;28;20039;-66
2023/03/03 07:28:25;;;;;;;13.63;5.47;;;-0.50;99.90;;;;;;5115338;28;20054;-66
2023/03/03 07:30:52;;;;;;;12.80;5.63;;;-0.40;99.90;;;;;;5114227;28;20043;-66
2023/03/03 07:33:26;;;;;;;8.50;4.40;;;-0.40;99.90;;;;;;5092219;28;20480;-66
2023/03/03 07:35:58;;;;;;;5.43;3.27;;;-0.30;99.90;;;;;;5075521;28;20165;-66
2023/03/03 07:38:36;;;;;;;8.57;4.05;;;-0.20;99.90;;;;;;5092352;28;20040;-66
2023/03/03 07:41:04;;;;;;;7.10;4.22;;;-0.20;99.90;;;;;;5091673;28;20131;-66
2023/03/03 07:43:39;;;;;;;7.78;4.57;;;-0.10;99.90;;;;;;5091599;28;20502;-66
2023/03/03 07:46:41;;;;;;;12.43;5.10;;;0.00;99.90;;;;;;5092466;28;20044;-66
2023/03/03 07:49:20;;;;;;;9.13;5.72;;;0.30;99.90;;;;;;4996782;28;20334;-66
2023/03/03 07:51:48;;;;;;;8.15;5.10;;;0.50;99.90;;;;;;5106848;28;20055;-66
2023/03/03 07:54:37;;;;;;;11.30;7.40;;;0.70;99.90;;;;;;5112767;28;20035;-66
2023/03/03 07:57:35;;;;;;;12.38;8.10;;;1.00;99.90;;;;;;5108472;28;20055;-66
2023/03/03 08:00:13;;;;;;;13.02;7.65;;;1.20;99.90;;;;;;5091622;28;20043;-66
2023/03/03 08:02:45;;;;;;;10.73;6.35;;;1.40;99.90;;;;;;5104097;28;20553;-66
2023/03/03 08:05:34;;;;;;;12.98;6.18;;;1.50;99.90;;;;;;5091585;28;20036;-66
2023/03/03 08:08:35;;;;;;;10.48;5.97;;;1.70;99.90;;;;;;5088283;28;20144;-66
2023/03/03 08:11:02;;;;;;;16.38;6.80;;;1.80;99.90;;;;;;5068371;28;20052;-66
2023/03/03 08:13:40;;;;;;;11.45;6.22;;;2.00;99.90;;;;;;5066639;28;20400;-66
2023/03/03 08:16:09;;;;;;;10.88;5.65;;;2.20;99.90;;;;;;5075079;28;20492;-66
2023/03/03 08:18:41;;;;;;;11.48;5.35;;;2.40;99.90;;;;;;5088562;28;20123;-65
2023/03/03 08:21:06;;;;;;;10.95;4.97;;;2.70;99.90;;;;;;5096352;28;20044;-66
2023/03/03 08:23:32;;;;;;;11.55;3.90;;;2.80;99.90;;;;;;5098184;28;20048;-66
2023/03/03 08:25:58;;;;;;;13.95;4.32;;;3.00;99.90;;;;;;5088139;28;20413;-66
2023/03/03 08:28:23;;;;;;;5.93;3.10;;;3.20;99.90;;;;;;5083123;28;20074;-65
2023/03/03 08:30:49;;;;;;;7.50;2.72;;;3.40;99.90;;;;;;5091453;28;20043;-65
2023/03/03 08:33:16;;;;;;;6.03;2.60;;;3.60;99.90;;;;;;5079410;28;20032;-65
2023/03/03 08:35:43;;;;;;;5.70;2.00;;;3.80;99.90;;;;;;5082437;28;20040;-65
2023/03/03 08:38:10;;;;;;;7.85;2.60;;;4.10;99.90;;;;;;5087458;28;20221;-65
2023/03/03 08:40:35;;;;;;;6.43;2.25;;;4.20;99.90;;;;;;5098444;28;20461;-65
2023/03/03 08:43:01;;;;;;;4.70;1.88;;;4.40;99.90;;;;;;5090776;28;20096;-65
2023/03/03 08:45:28;;;;;;;6.25;1.60;;;4.50;99.90;;;;;;5089878;28;20052;-65
2023/03/03 08:47:55;;;;;;;6.05;2.05;;;4.50;99.90;;;;;;5091141;28;20040;-65
2023/03/03 08:50:21;;;;;;;6.30;1.70;;;4.60;99.90;;;;;;5091010;28;20039;-65
2023/03/03 08:52:47;;;;;;;3.75;1.65;;;4.70;99.90;;;;;;5089886;28;20115;-65
2023/03/03 08:55:13;;;;;;;5.25;1.80;;;4.70;99.90;;;;;;5101330;28;20147;-65
2023/03/03 08:57:39;;;;;;;3.85;1.30;;;4.80;99.90;;;;;;5107464;28;20047;-66
2023/03/03 09:00:11;;;;;;;5.38;1.48;;;4.90;99.90;;;;;;5092170;28;20024;-66
2023/03/03 09:02:37;;;;;;;6.20;1.75;;;5.00;99.90;;;;;;5100857;28;20068;-66
2023/03/03 09:05:03;;;;;;;5.38;1.83;;;5.00;99.90;;;;;;5091463;28;20089;-66
2023/03/03 09:07:29;;;;;;;7.15;1.67;;;5.10;99.90;;;;;;5091180;28;20040;-66
2023/03/03 09:09:55;;;;;;;4.63;1.95;;;5.10;99.90;;;;;;5092396;28;20366;-65
2023/03/03 09:12:42;;;;;;;4.13;1.52;;;5.20;99.90;;;;;;5091476;28;20044;-66
2023/03/03 09:15:27;;;;;;;3.25;1.65;;;5.20;99.90;;;;;;5090831;28;20047;-66
2023/03/03 09:17:56;;;;;;;3.75;1.15;;;5.30;99.90;;;;;;5092346;28;20040;-65
2023/03/03 09:20:37;;;;;;;5.47;1.48;;;5.30;99.90;;;;;;5089131;28;20121;-66
2023/03/03 09:23:33;;;;;;;5.43;1.60;;;5.40;99.90;;;;;;5087128;28;20055;-65
2023/03/03 09:26:25;;;;;;;6.97;1.58;;;5.50;99.90;;;;;;5086845;28;20404;-66
2023/03/03 09:28:53;;;;;;;3.42;1.20;;;5.50;99.90;;;;;;5081956;28;20067;-66
2023/03/03 09:31:48;;;;;;;5.35;2.05;;;5.50;99.90;;;;;;5089986;28;20043;-66
2023/03/03 09:34:35;;;;;;;4.22;1.30;;;5.60;99.90;;;;;;5100196;28;20058;-66
2023/03/03 09:37:32;;;;;;;4.75;1.30;;;5.70;99.90;;;;;;5091915;28;20040;-66
2023/03/03 09:39:58;;;;;;;3.67;1.35;;;5.70;99.90;;;;;;5091170;28;20418;-66
2023/03/03 09:42:57;;;;;;;5.40;1.40;;;5.80;99.90;;;;;;5089620;28;20177;-66
2023/03/03 09:45:38;;;;;;;3.63;1.13;;;5.80;99.90;;;;;;5082067;28;20044;-66
2023/03/03 09:48:35;;;;;;;4.90;1.33;;;5.80;99.90;;;;;;5054014;28;20125;-66
2023/03/03 09:51:16;;;;;;;5.82;1.17;;;5.90;99.90;;;;;;5085825;28;20083;-67
2023/03/03 09:53:56;;;;;;;3.72;1.40;;;5.90;99.90;;;;;;5077658;28;20069;-66
2023/03/03 09:56:44;;;;;;;4.63;1.45;;;5.90;99.90;;;;;;5087311;28;20743;-66
2023/03/03 09:59:51;;;;;;;4.13;1.30;;;6.00;99.90;;;;;;5086092;28;20159;-65
2023/03/03 10:02:33;;;;;;;3.90;0.98;;;6.00;99.90;;;;;;5020121;28;20041;-66
2023/03/03 10:05:07;;;;;;;5.10;1.30;;;6.00;99.90;;;;;;5011951;28;20073;-66
2023/03/03 10:07:42;;;;;;;3.55;0.70;;;6.00;99.90;;;;;;5060630;28;20051;-65
2023/03/03 10:10:28;;;;;;;5.25;1.05;;;6.10;99.90;;;;;;5088457;28;20051;-65
2023/03/03 10:13:09;;;;;;;3.42;0.95;;;6.10;99.90;;;;;;5072600;28;20040;-65
2023/03/03 10:15:35;;;;;;;4.57;1.15;;;6.10;99.90;;;;;;5093326;28;20054;-65
2023/03/03 10:18:29;;;;;;;4.00;0.90;;;6.10;99.90;;;;;;5089211;28;20035;-65
2023/03/03 10:21:16;;;;;;;3.73;1.00;;;6.20;99.90;;;;;;5085383;28;20119;-65
2023/03/03 10:23:55;;;;;;;5.22;1.35;;;6.20;99.90;;;;;;5106035;28;20686;-64
2023/03/03 10:26:39;;;;;;;3.08;0.90;;;6.20;99.90;;;;;;5101253;28;20079;-64
2023/03/03 10:29:48;;;;;;;5.03;0.80;;;6.30;99.90;;;;;;5092937;28;20047;-65
2023/03/03 10:32:24;;;;;;;5.57;1.02;;;6.40;99.90;;;;;;5084079;28;20043;-66
2023/03/03 10:35:05;;;;;;;3.67;0.75;;;6.50;99.90;;;;;;5088685;28;20098;-66
2023/03/03 10:37:49;;;;;;;2.95;0.90;;;6.50;99.90;;;;;;5089782;28;20043;-66
2023/03/03 10:40:45;;;;;;;3.42;0.90;;;6.60;99.90;;;;;;5076213;28;20143;-65
2023/03/03 10:43:27;;;;;;;4.60;1.02;;;6.70;99.90;;;;;;5072954;28;20044;-65
2023/03/03 10:46:11;;;;;;;4.85;1.15;;;6.70;99.90;;;;;;5091364;28;20044;-65
2023/03/03 10:48:37;;;;;;;3.08;1.30;;;6.80;99.90;;;;;;5084370;28;20036;-64
2023/03/03 10:51:18;;;;;;;4.30;1.02;;;6.80;99.90;;;;;;5095703;28;20421;-64
2023/03/03 10:54:07;;;;;;;7.57;2.15;;;6.80;99.90;;;;;;5074317;28;20102;-65
2023/03/03 10:57:10;;;;;;;7.95;1.40;;;6.90;99.90;;;;;;5090811;28;20182;-64
2023/03/03 11:00:12;;;;;;;2.50;1.00;;;7.00;99.90;;;;;;5065866;28;20131;-64
2023/03/03 11:02:45;;;;;;;3.65;1.17;;;7.00;99.90;;;;;;5090811;28;20432;-64
2023/03/03 11:05:23;;;;;;;4.47;1.73;;;7.10;99.90;;;;;;5088759;28;20044;-64
2023/03/03 11:08:01;;;;;;;5.40;0.98;;;7.10;99.90;;;;;;5077183;28;20139;-63
2023/03/03 11:10:53;;;;;;;6.90;1.27;;;7.20;99.90;;;;;;5085548;28;20040;-64
2023/03/03 11:13:43;;;;;;;4.25;1.30;;;7.20;99.90;;;;;;5038903;28;20071;-67
2023/03/03 11:16:29;;;;;;;5.28;1.50;;;7.20;99.90;;;;;;5060203;28;20144;-62
2023/03/03 11:18:54;;;;;;;;;;;7.20;99.90;;;;;;5086790;28;20489;-64
2023/03/03 11:21:37;;;;;;;6.90;1.83;;;7.20;99.90;;;;;;5071974;28;19916;-63
2023/03/03 11:24:14;;;;;;;5.63;1.17;;;7.20;99.90;;;;;;5076671;28;20170;-63
2023/03/03 11:27:04;;;;;;;6.07;1.58;;;7.20;99.90;;;;;;5070171;28;20389;-63
2023/03/03 11:29:53;;;;;;;8.40;1.58;;;7.10;99.90;;;;;;5070819;28;20036;-62
2023/03/03 11:32:22;;;;;;;9.63;1.58;;;7.20;99.90;;;;;;5042023;28;20067;-63
2023/03/03 11:35:24;;;;;;;8.63;2.05;;;7.30;99.90;;;;;;5082830;28;20075;-63
2023/03/03 11:38:10;;;;;;;7.13;1.33;;;7.40;99.90;;;;;;5071979;28;20086;-62
2023/03/03 11:41:26;;;;;;;6.22;1.88;;;7.40;99.90;;;;;;5079770;28;20055;-63
2023/03/03 11:44:00;;;;;;;7.13;1.80;;;7.30;99.90;;;;;;5076070;28;20103;-63
2023/03/03 11:46:33;;;;;;;4.97;1.37;;;7.30;99.90;;;;;;5087518;28;20151;-66
2023/03/03 11:49:04;;;;;;;8.48;1.55;;;7.30;99.90;;;;;;5073504;28;20476;-63
2023/03/03 11:51:33;;;;;;;9.10;1.85;;;7.40;99.90;;;;;;5073517;28;20046;-65
2023/03/03 11:54:09;;;;;;;5.35;1.63;;;7.40;99.90;;;;;;5089579;28;20036;-64
2023/03/03 11:56:46;;;;;;;9.18;2.00;;;7.50;99.90;;;;;;5090393;28;20044;-65
2023/03/03 11:59:42;;;;;;;7.60;1.40;;;7.50;99.90;;;;;;5091534;28;20072;-65
2023/03/03 12:02:42;;;;;;;6.22;1.40;;;7.50;99.90;;;;;;5072927;28;20506;-63
2023/03/03 12:05:33;;;;;;;7.82;1.48;;;7.50;99.90;;;;;;5090254;28;20511;-64
2023/03/03 12:08:14;;;;;;;8.68;1.55;;;7.50;99.90;;;;;;5089786;28;20050;-63
2023/03/03 12:10:51;;;;;;;9.15;1.65;;;7.50;99.90;;;;;;5077232;28;20054;-63
2023/03/03 12:13:17;;;;;;;8.70;1.42;;;7.50;99.90;;;;;;5093892;28;20036;-63
2023/03/03 12:16:07;;;;;;;6.28;1.80;;;7.50;99.90;;;;;;5093177;28;20039;-63
2023/03/03 12:19:03;;;;;;;7.88;2.20;;;7.60;99.90;;;;;;5093955;28;20543;-63
2023/03/03 12:21:51;;;;;;;5.80;1.83;;;7.50;99.90;;;;;;5093584;28;20046;-64
2023/03/03 12:24:42;;;;;;;7.47;1.75;;;7.50;99.90;;;;;;5093942;28;20078;-63
2023/03/03 12:27:25;;;;;;;8.38;1.80;;;7.50;99.90;;;;;;5095018;28;20392;-64
2023/03/03 12:29:56;;;;;;;8.80;1.95;;;7.50;99.90;;;;;;5093276;28;20036;-63
2023/03/03 12:32:30;;;;;;;11.18;2.67;;;7.60;99.90;;;;;;5094989;28;20071;-63
2023/03/03 12:35:34;;;;;;;11.00;2.30;;;7.60;99.90;;;;;;5095108;28;20048;-63
2023/03/03 12:38:12;;;;;;;10.38;1.98;;;7.70;99.90;;;;;;5093018;28;20285;-63
2023/03/03 12:40:51;;;;;;;14.25;3.03;;;7.70;99.90;;;;;;5093360;28;20056;-63
2023/03/03 12:43:51;;;;;;;10.27;2.00;;;7.70;99.90;;;;;;5075701;28;20500;-63
2023/03/03 12:46:32;;;;;;;14.20;2.63;;;7.70;99.90;;;;;;5083383;28;20060;-65
2023/03/03 12:48:58;;;;;;;10.80;2.20;;;7.70;99.90;;;;;;5093663;28;20044;-64
2023/03/03 12:51:58;;;;;;;7.97;2.67;;;7.70;99.90;;;;;;5093744;28;20044;-64
2023/03/03 12:54:26;;;;;;;14.93;3.40;;;7.60;99.90;;;;;;5088387;28;20056;-64
2023/03/03 12:57:02;;;;;;;10.77;2.80;;;7.60;99.90;;;;;;5094668;28;20040;-65
2023/03/03 13:00:05;;;;;;;10.60;2.33;;;7.60;99.90;;;;;;5075833;28;20032;-64
2023/03/03 13:02:44;;;;;;;12.52;3.60;;;7.60;99.90;;;;;;5094284;28;20040;-63
2023/03/03 13:05:20;;;;;;;17.42;4.25;;;7.70;99.90;;;;;;5092230;28;20090;-62
2023/03/03 13:08:19;;;;;;;14.32;3.35;;;7.70;99.90;;;;;;5093289;28;20488;-63
2023/03/03 13:10:51;;;;;;;11.48;2.58;;;7.70;99.90;;;;;;5075939;28;20059;-62
2023/03/03 13:13:30;;;;;;;14.23;3.50;;;7.70;99.90;;;;;;5091899;28;20047;-63
2023/03/03 13:16:03;;;;;;;14.57;3.22;;;7.70;99.90;;;;;;5094427;28;20093;-63
2023/03/03 13:18:56;;;;;;;15.15;3.60;;;7.60;99.90;;;;;;5093071;28;20434;-64